createdAt,value
2022-08-05T00:00:43.759Z,18.02
2022-08-05T00:05:51.670Z,18.03
2022-08-05T00:10:58.850Z,18.12
2022-08-05T00:16:07.199Z,18.04
2022-08-05T00:21:13.841Z,17.99
2022-08-05T00:26:21.030Z,17.76
2022-08-05T00:31:28.861Z,17.82
2022-08-05T00:36:37.006Z,17.79
2022-08-05T00:41:43.259Z,17.67
2022-08-05T00:46:51.100Z,17.58
2022-08-05T00:51:58.938Z,17.56
2022-08-05T00:57:06.646Z,17.62
2022-08-05T01:02:14.636Z,17.54
2022-08-05T01:07:22.412Z,17.48
2022-08-05T01:12:29.338Z,17.57
2022-08-05T01:17:37.574Z,17.48
2022-08-05T01:22:44.649Z,17.46
2022-08-05T01:27:52.093Z,17.44
2022-08-05T01:33:00.153Z,17.4
2022-08-05T01:38:08.829Z,17.56
2022-08-05T01:43:16.058Z,17.51
2022-08-05T01:48:22.613Z,17.35
2022-08-05T01:53:30.875Z,17.04
2022-08-05T01:58:37.677Z,16.9
2022-08-05T02:03:44.862Z,16.86
2022-08-05T02:08:52.027Z,16.91
2022-08-05T02:13:58.616Z,16.88
2022-08-05T02:19:06.042Z,16.94
2022-08-05T02:24:17.953Z,16.75
2022-08-05T02:29:26.484Z,16.57
2022-08-05T02:34:34.396Z,16.65
2022-08-05T02:39:43.290Z,16.74
2022-08-05T02:44:50.772Z,16.7
2022-08-05T02:49:58.676Z,16.56
2022-08-05T02:55:06.709Z,16.59
2022-08-05T03:00:15.066Z,16.65
2022-08-05T03:05:22.804Z,16.57
2022-08-05T03:10:29.977Z,16.56
2022-08-05T03:15:37.887Z,16.49
2022-08-05T03:20:45.530Z,16.38
2022-08-05T03:25:54.010Z,16.35
2022-08-05T03:31:02.438Z,16.42
2022-08-05T03:36:10.398Z,16.28
2022-08-05T03:41:19.131Z,16.32
2022-08-05T03:46:26.202Z,16.46
2022-08-05T03:51:34.011Z,16.44
2022-08-05T03:56:41.830Z,16.47
2022-08-05T04:01:48.994Z,16.62
2022-08-05T04:06:57.496Z,16.88
2022-08-05T04:12:06.338Z,17.89
2022-08-05T04:17:14.806Z,18.97
2022-08-05T04:22:21.751Z,19.88
2022-08-05T04:27:29.937Z,21.46
2022-08-05T04:32:37.660Z,23.18
2022-08-05T04:37:45.821Z,24.82
2022-08-05T04:42:53.813Z,25.89
2022-08-05T04:48:00.850Z,25.82
2022-08-05T04:53:09.855Z,26.9
2022-08-05T04:58:17.440Z,28.29
2022-08-05T05:03:25.414Z,29.05
2022-08-05T05:08:33.768Z,28.92
2022-08-05T05:13:40.699Z,29.04
2022-08-05T05:18:48.473Z,29.86
2022-08-05T05:23:55.734Z,31.64
2022-08-05T05:29:04.733Z,31.82
2022-08-05T05:34:12.265Z,32.11
2022-08-05T05:39:19.391Z,32.34
2022-08-05T05:44:27.292Z,32.69
2022-08-05T05:49:34.969Z,33.03
2022-08-05T05:54:43.285Z,34.97
2022-08-05T05:59:50.619Z,35.52
2022-08-05T06:04:57.817Z,35.99
2022-08-05T06:10:08.091Z,36.54
2022-08-05T06:15:15.447Z,36.17
2022-08-05T06:20:23.763Z,36.11
2022-08-05T06:25:31.123Z,36.16
2022-08-05T06:30:39.909Z,36.63
2022-08-05T06:35:47.415Z,36.4
2022-08-05T06:40:53.978Z,36.69
2022-08-05T06:46:01.794Z,37.08
2022-08-05T06:51:10.803Z,37.4
2022-08-05T06:56:18.895Z,37.82
2022-08-05T07:01:26.649Z,37.96
2022-08-05T07:06:34.569Z,37.13
2022-08-05T07:11:42.801Z,37.2
2022-08-05T07:16:50.527Z,36.59
2022-08-05T07:21:57.975Z,37.24
2022-08-05T07:27:07.336Z,37.84
2022-08-05T07:32:15.752Z,38.0
2022-08-05T07:37:23.349Z,38.26
2022-08-05T07:42:31.126Z,39.77
2022-08-05T07:47:39.616Z,38.88
2022-08-05T07:52:47.220Z,39.47
2022-08-05T07:58:00.370Z,39.81
2022-08-05T08:03:08.311Z,39.26
2022-08-05T08:08:16.536Z,38.08
2022-08-05T08:13:25.276Z,37.51
2022-08-05T08:18:31.942Z,36.98
2022-08-05T08:23:39.742Z,36.96
2022-08-05T08:28:47.915Z,38.42
2022-08-05T08:33:55.441Z,38.36
2022-08-05T08:39:03.900Z,37.81
2022-08-05T08:44:11.711Z,39.3
2022-08-05T08:49:20.422Z,37.77
2022-08-05T08:54:28.164Z,37.35
2022-08-05T08:59:35.896Z,37.26
2022-08-05T09:04:43.621Z,37.84
2022-08-05T09:09:50.311Z,38.24
2022-08-05T09:14:59.289Z,38.59
2022-08-05T09:20:07.356Z,39.56
2022-08-05T09:21:38.572Z,39.44
2022-08-05T09:26:44.959Z,38.99
2022-08-05T09:31:53.114Z,38.02
2022-08-05T09:37:01.218Z,38.36
2022-08-05T09:42:09.087Z,38.68
2022-08-05T09:47:16.058Z,38.07
2022-08-05T09:52:23.929Z,39.56
2022-08-05T09:57:30.628Z,39.1
2022-08-05T10:02:38.308Z,38.17
2022-08-05T10:07:45.717Z,38.52
2022-08-05T10:12:53.841Z,38.19
2022-08-05T10:18:02.338Z,37.42
2022-08-05T10:23:10.168Z,37.57
2022-08-05T10:28:17.943Z,37.9
2022-08-05T10:33:26.222Z,38.04
2022-08-05T10:38:33.175Z,37.17
2022-08-05T10:43:41.160Z,36.95
2022-08-05T10:48:49.433Z,37.51
2022-08-05T10:53:56.042Z,38.27
2022-08-05T10:59:04.409Z,39.88
2022-08-05T11:04:12.328Z,38.71
2022-08-05T11:09:18.803Z,38.57
2022-08-05T11:14:25.499Z,38.36
2022-08-05T11:19:33.503Z,38.6
2022-08-05T11:24:41.048Z,37.76
2022-08-05T11:29:50.300Z,38.11
2022-08-05T11:34:59.172Z,38.86
2022-08-05T11:40:06.086Z,39.4
2022-08-05T11:45:14.030Z,38.14
2022-08-05T11:50:22.630Z,37.89
2022-08-05T11:55:30.716Z,38.13
2022-08-05T12:00:39.221Z,37.9
2022-08-05T12:05:46.203Z,36.94
2022-08-05T12:10:54.172Z,37.25
2022-08-05T12:16:02.310Z,36.76
2022-08-05T12:21:10.930Z,37.17
2022-08-05T12:26:17.919Z,37.47
2022-08-05T12:31:26.025Z,38.0
2022-08-05T12:36:33.432Z,37.63
2022-08-05T12:41:40.697Z,36.99
2022-08-05T12:46:48.083Z,36.97
2022-08-05T12:51:55.356Z,37.08
2022-08-05T12:57:02.936Z,36.88
2022-08-05T13:02:10.643Z,36.65
2022-08-05T13:07:17.972Z,37.36
2022-08-05T13:12:25.035Z,37.57
2022-08-05T13:17:31.734Z,37.66
2022-08-05T13:22:39.966Z,37.74
2022-08-05T13:27:46.136Z,37.76
2022-08-05T13:32:53.972Z,37.76
2022-08-05T13:38:02.066Z,37.81
2022-08-05T13:43:09.011Z,37.75
2022-08-05T13:48:17.200Z,37.2
2022-08-05T13:53:25.205Z,37.38
2022-08-05T13:58:31.919Z,38.01
2022-08-05T14:03:40.145Z,38.51
2022-08-05T14:08:49.493Z,39.04
2022-08-05T14:13:57.745Z,39.3
2022-08-05T14:19:06.729Z,39.14
2022-08-05T14:24:13.725Z,38.75
2022-08-05T14:29:21.334Z,38.57
2022-08-05T14:34:28.692Z,37.81
2022-08-05T14:39:36.800Z,38.42
2022-08-05T14:44:43.730Z,39.1
2022-08-05T14:49:51.063Z,39.01
2022-08-05T14:54:58.906Z,38.95
2022-08-05T15:00:06.683Z,39.3
2022-08-05T15:05:13.226Z,39.56
2022-08-05T15:10:21.020Z,39.21
2022-08-05T15:15:28.272Z,39.03
2022-08-05T15:20:36.126Z,38.74
2022-08-05T15:25:43.900Z,38.45
2022-08-05T15:30:50.456Z,37.16
2022-08-05T15:35:57.186Z,36.92
2022-08-05T15:41:04.844Z,37.6
2022-08-05T15:46:12.689Z,38.34
2022-08-05T15:51:18.595Z,37.32
2022-08-05T15:56:24.562Z,36.32
2022-08-05T16:01:32.088Z,35.36
2022-08-05T16:06:39.101Z,34.83
2022-08-05T16:11:46.776Z,34.36
2022-08-05T16:16:54.431Z,34.7
2022-08-05T16:22:02.719Z,35.02
2022-08-05T16:27:11.339Z,35.08
2022-08-05T16:32:18.093Z,34.66
2022-08-05T16:37:25.529Z,34.1
2022-08-05T16:42:33.444Z,33.92
2022-08-05T16:47:41.120Z,33.69
2022-08-05T16:52:47.839Z,33.49
2022-08-05T16:57:55.288Z,33.29
2022-08-05T17:03:02.790Z,32.75
2022-08-05T17:08:09.930Z,32.3
2022-08-05T17:13:17.030Z,32.02
2022-08-05T17:18:23.990Z,31.64
2022-08-05T17:23:31.643Z,31.26
2022-08-05T17:28:38.632Z,30.96
2022-08-05T17:33:46.394Z,30.66
2022-08-05T17:38:53.602Z,30.33
2022-08-05T17:44:00.856Z,30.04
2022-08-05T17:49:08.055Z,29.78
2022-08-05T17:54:15.892Z,29.49
2022-08-05T17:59:23.739Z,29.69
2022-08-05T18:04:30.936Z,29.76
2022-08-05T18:09:38.189Z,29.5
2022-08-05T18:15:23.800Z,29.48
2022-08-05T18:20:32.193Z,29.3
2022-08-05T18:25:40.595Z,29.26
2022-08-05T18:30:49.034Z,29.06
2022-08-05T18:35:56.599Z,28.9
2022-08-05T18:41:04.878Z,28.64
2022-08-05T18:46:19.092Z,28.29
2022-08-05T18:51:27.101Z,27.84
2022-08-05T18:56:35.351Z,27.7
2022-08-05T19:01:43.282Z,27.6
2022-08-05T19:06:51.494Z,27.56
2022-08-05T19:11:58.937Z,28.15
2022-08-05T19:17:06.754Z,28.1
2022-08-05T19:22:15.072Z,28.02
2022-08-05T19:27:22.505Z,28.58
2022-08-05T19:32:30.324Z,28.86
2022-08-05T19:37:38.327Z,28.81
2022-08-05T19:42:46.646Z,28.67
2022-08-05T19:56:24.695Z,28.56
2022-08-05T20:01:32.806Z,28.23
2022-08-05T20:06:39.623Z,28.08
2022-08-05T20:11:47.284Z,27.86
2022-08-05T20:16:54.646Z,27.54
2022-08-05T20:22:01.985Z,27.17
2022-08-05T20:27:09.634Z,26.97
2022-08-05T20:32:17.499Z,26.71
2022-08-05T20:37:25.537Z,26.7
2022-08-05T20:42:33.748Z,26.58
2022-08-05T20:47:42.731Z,26.82
2022-08-05T20:52:56.499Z,26.7
2022-08-05T20:58:04.428Z,26.66
2022-08-05T21:03:12.225Z,26.7
2022-08-05T21:08:19.421Z,26.38
2022-08-05T21:13:26.660Z,26.28
2022-08-05T21:18:35.603Z,26.3
2022-08-05T21:23:44.087Z,26.28
2022-08-05T21:28:51.416Z,26.17
2022-08-05T21:33:58.620Z,26.1
2022-08-05T21:39:08.063Z,26.08
2022-08-05T21:44:16.558Z,26.26
2022-08-05T21:49:24.091Z,26.28
2022-08-05T21:54:31.476Z,26.26
2022-08-05T21:59:38.218Z,26.06
2022-08-05T22:04:45.125Z,25.94
2022-08-05T22:09:51.835Z,25.92
2022-08-05T22:14:59.921Z,25.84
2022-08-05T22:20:07.291Z,25.7
2022-08-05T22:25:15.609Z,25.58
2022-08-05T22:30:21.693Z,25.58
2022-08-05T22:35:29.527Z,26.2
2022-08-05T22:40:37.270Z,26.12
2022-08-05T22:45:45.888Z,26.2
2022-08-05T22:50:54.867Z,26.0
2022-08-05T22:56:01.748Z,25.98
2022-08-05T23:01:08.721Z,25.88
2022-08-05T23:06:16.539Z,25.65
2022-08-05T23:11:24.564Z,25.49
2022-08-05T23:16:32.239Z,25.3
2022-08-05T23:21:39.000Z,25.06
2022-08-05T23:26:46.902Z,25.01
2022-08-05T23:31:53.211Z,25.07
2022-08-05T23:37:01.139Z,25.21
2022-08-05T23:42:09.358Z,25.11
2022-08-05T23:47:16.426Z,25.06
2022-08-05T23:52:22.952Z,25.02
2022-08-05T23:57:31.395Z,24.92
